TPQ weather

Amado Nervo National Airport
Tepic, Nayarit, Mexico

Public forecast

Using degrees Celsius for public forecast. Weather courtesy of forecast.io.

Current aviation weather report (METAR) for Amado Nervo National Airport

Retrieved 2019/12/11 13:43 UTC (0 seconds ago):

MMEP 111343Z 00000KT 10SM FEW220 08/08 A3009 RMK 8/001

Aviation forecast (TAF) for Amado Nervo National Airport

Forecast is more than 6 hours old.

Retrieved 2019/12/11 06:42 UTC (7 hours ago):

TAF MMEP 110509Z 1106/1206 00000KT 6SM HZ SKC TEMPO 1106/1110 2SM BR BKN010 FM111800 33010KT 6SM HZ SCT020 FM120300 03005KT 6SM HZ SCT015